sensor_id;sensor_type;location;lat;lon;timestamp;pressure;altitude;pressure_sealevel;temperature;humidity
40315;BME280;26021;45.640;11.302;2023-03-25T00:02:22;98270.00;;;12.10;100.00
40315;BME280;26021;45.640;11.302;2023-03-25T00:04:49;98230.84;;;11.74;100.00
40315;BME280;26021;45.640;11.302;2023-03-25T00:07:16;98266.69;;;11.73;100.00
40315;BME280;26021;45.640;11.302;2023-03-25T00:09:43;98107.34;;;10.74;100.00
40315;BME280;26021;45.640;11.302;2023-03-25T00:12:08;98260.28;;;11.96;100.00
40315;BME280;26021;45.640;11.302;2023-03-25T00:14:33;98259.66;;;11.66;100.00
40315;BME280;26021;45.640;11.302;2023-03-25T00:16:59;98246.44;;;11.58;100.00
40315;BME280;26021;45.640;11.302;2023-03-25T00:19:25;98254.97;;;11.74;100.00
40315;BME280;26021;45.640;11.302;2023-03-25T00:21:51;98253.25;;;11.60;100.00
40315;BME280;26021;45.640;11.302;2023-03-25T00:24:18;98242.06;;;11.50;100.00
40315;BME280;26021;45.640;11.302;2023-03-25T00:26:47;98226.63;;;11.52;100.00
40315;BME280;26021;45.640;11.302;2023-03-25T00:29:15;98239.78;;;11.47;100.00
40315;BME280;26021;45.640;11.302;2023-03-25T00:31:41;98246.31;;;11.38;100.00
40315;BME280;26021;45.640;11.302;2023-03-25T00:34:07;98241.97;;;11.37;100.00
40315;BME280;26021;45.640;11.302;2023-03-25T00:36:34;98242.53;;;11.60;100.00
40315;BME280;26021;45.640;11.302;2023-03-25T00:39:03;98240.22;;;11.51;100.00
40315;BME280;26021;45.640;11.302;2023-03-25T00:41:29;98162.63;;;10.95;100.00
40315;BME280;26021;45.640;11.302;2023-03-25T00:43:56;98204.47;;;11.30;100.00
40315;BME280;26021;45.640;11.302;2023-03-25T00:46:23;98243.47;;;11.46;100.00
40315;BME280;26021;45.640;11.302;2023-03-25T00:48:50;98247.22;;;11.52;100.00
40315;BME280;26021;45.640;11.302;2023-03-25T00:51:16;98237.13;;;11.54;100.00
40315;BME280;26021;45.640;11.302;2023-03-25T00:53:44;98243.78;;;11.30;100.00
40315;BME280;26021;45.640;11.302;2023-03-25T00:56:09;98241.28;;;11.22;100.00
40315;BME280;26021;45.640;11.302;2023-03-25T00:58:36;98237.50;;;11.44;100.00
40315;BME280;26021;45.640;11.302;2023-03-25T01:01:07;98232.09;;;11.37;100.00
40315;BME280;26021;45.640;11.302;2023-03-25T01:03:35;98233.38;;;11.41;100.00
40315;BME280;26021;45.640;11.302;2023-03-25T01:06:01;98232.19;;;11.51;100.00
40315;BME280;26021;45.640;11.302;2023-03-25T01:08:27;98226.56;;;11.39;100.00
40315;BME280;26021;45.640;11.302;2023-03-25T01:10:54;98212.16;;;11.12;100.00
40315;BME280;26021;45.640;11.302;2023-03-25T01:13:20;98212.84;;;11.21;100.00
40315;BME280;26021;45.640;11.302;2023-03-25T01:15:46;98222.13;;;11.25;100.00
40315;BME280;26021;45.640;11.302;2023-03-25T01:18:12;98225.25;;;11.28;100.00
40315;BME280;26021;45.640;11.302;2023-03-25T01:20:38;98216.19;;;11.29;100.00
40315;BME280;26021;45.640;11.302;2023-03-25T01:23:04;98204.78;;;11.49;100.00
40315;BME280;26021;45.640;11.302;2023-03-25T01:25:29;98213.28;;;11.24;100.00
40315;BME280;26021;45.640;11.302;2023-03-25T01:27:55;98203.22;;;11.26;100.00
40315;BME280;26021;45.640;11.302;2023-03-25T01:30:20;98202.41;;;11.04;100.00
40315;BME280;26021;45.640;11.302;2023-03-25T01:32:46;98192.31;;;11.00;100.00
40315;BME280;26021;45.640;11.302;2023-03-25T01:35:12;98194.88;;;11.14;100.00
40315;BME280;26021;45.640;11.302;2023-03-25T01:37:37;98199.16;;;11.09;100.00
40315;BME280;26021;45.640;11.302;2023-03-25T01:40:04;98196.97;;;10.91;100.00
40315;BME280;26021;45.640;11.302;2023-03-25T01:42:32;98160.09;;;10.87;100.00
40315;BME280;26021;45.640;11.302;2023-03-25T01:47:40;98178.34;;;10.76;100.00
40315;BME280;26021;45.640;11.302;2023-03-25T01:50:05;98088.84;;;10.23;100.00
40315;BME280;26021;45.640;11.302;2023-03-25T01:52:40;98182.53;;;10.86;100.00
40315;BME280;26021;45.640;11.302;2023-03-25T01:55:07;98175.41;;;10.99;100.00
40315;BME280;26021;45.640;11.302;2023-03-25T01:57:32;98177.97;;;10.79;100.00
40315;BME280;26021;45.640;11.302;2023-03-25T01:59:58;98174.06;;;10.82;100.00
40315;BME280;26021;45.640;11.302;2023-03-25T02:02:24;98164.34;;;10.74;100.00
40315;BME280;26021;45.640;11.302;2023-03-25T02:05:34;98163.06;;;10.70;100.00
40315;BME280;26021;45.640;11.302;2023-03-25T02:08:03;98135.84;;;10.60;100.00
40315;BME280;26021;45.640;11.302;2023-03-25T02:10:30;98158.84;;;10.55;100.00
40315;BME280;26021;45.640;11.302;2023-03-25T02:12:56;98149.50;;;10.72;100.00
40315;BME280;26021;45.640;11.302;2023-03-25T02:15:23;98138.38;;;10.68;100.00
40315;BME280;26021;45.640;11.302;2023-03-25T02:20:52;97890.75;;;9.00;100.00
40315;BME280;26021;45.640;11.302;2023-03-25T02:23:43;98142.84;;;10.61;100.00
40315;BME280;26021;45.640;11.302;2023-03-25T02:32:15;98154.91;;;10.50;100.00
40315;BME280;26021;45.640;11.302;2023-03-25T02:40:26;98131.63;;;10.72;100.00
40315;BME280;26021;45.640;11.302;2023-03-25T02:43:13;98117.06;;;10.81;100.00
40315;BME280;26021;45.640;11.302;2023-03-25T02:45:49;98108.69;;;10.57;100.00
40315;BME280;26021;45.640;11.302;2023-03-25T02:51:12;98128.25;;;10.64;100.00
40315;BME280;26021;45.640;11.302;2023-03-25T02:53:40;98134.81;;;10.61;100.00
40315;BME280;26021;45.640;11.302;2023-03-25T02:56:11;98069.63;;;9.92;100.00
40315;BME280;26021;45.640;11.302;2023-03-25T02:58:40;98011.34;;;9.74;100.00
40315;BME280;26021;45.640;11.302;2023-03-25T03:01:06;98122.13;;;10.42;100.00
40315;BME280;26021;45.640;11.302;2023-03-25T03:03:34;98108.88;;;10.55;100.00
40315;BME280;26021;45.640;11.302;2023-03-25T03:06:02;98122.50;;;10.39;100.00
40315;BME280;26021;45.640;11.302;2023-03-25T03:14:36;98126.56;;;10.13;100.00
40315;BME280;26021;45.640;11.302;2023-03-25T03:17:11;98126.25;;;10.23;100.00
40315;BME280;26021;45.640;11.302;2023-03-25T03:25:06;98121.41;;;10.12;100.00
40315;BME280;26021;45.640;11.302;2023-03-25T03:33:25;98135.09;;;10.02;100.00
40315;BME280;26021;45.640;11.302;2023-03-25T03:35:51;98132.22;;;10.04;100.00
40315;BME280;26021;45.640;11.302;2023-03-25T03:38:23;98135.47;;;9.99;100.00
40315;BME280;26021;45.640;11.302;2023-03-25T03:40:54;98140.38;;;9.96;100.00
40315;BME280;26021;45.640;11.302;2023-03-25T03:43:25;98138.66;;;10.09;100.00
40315;BME280;26021;45.640;11.302;2023-03-25T03:45:56;98080.97;;;9.57;100.00
40315;BME280;26021;45.640;11.302;2023-03-25T03:48:46;98155.03;;;9.85;100.00
40315;BME280;26021;45.640;11.302;2023-03-25T03:51:18;98153.47;;;9.91;100.00
40315;BME280;26021;45.640;11.302;2023-03-25T03:54:02;98147.91;;;9.56;100.00
40315;BME280;26021;45.640;11.302;2023-03-25T03:56:36;98107.63;;;9.36;100.00
40315;BME280;26021;45.640;11.302;2023-03-25T03:59:09;98144.91;;;9.44;100.00
40315;BME280;26021;45.640;11.302;2023-03-25T04:01:43;98162.16;;;9.63;100.00
40315;BME280;26021;45.640;11.302;2023-03-25T04:04:18;98168.00;;;9.52;100.00
40315;BME280;26021;45.640;11.302;2023-03-25T04:06:55;98170.28;;;9.55;100.00
40315;BME280;26021;45.640;11.302;2023-03-25T04:10:20;98167.91;;;9.45;100.00
40315;BME280;26021;45.640;11.302;2023-03-25T04:12:31;98181.34;;;9.67;100.00
40315;BME280;26021;45.640;11.302;2023-03-25T04:15:02;98190.81;;;9.69;100.00
40315;BME280;26021;45.640;11.302;2023-03-25T04:17:29;98192.72;;;9.61;100.00
40315;BME280;26021;45.640;11.302;2023-03-25T04:19:57;98179.50;;;9.67;100.00
40315;BME280;26021;45.640;11.302;2023-03-25T04:22:23;98190.38;;;9.36;100.00
40315;BME280;26021;45.640;11.302;2023-03-25T04:24:49;98187.81;;;9.13;100.00
40315;BME280;26021;45.640;11.302;2023-03-25T04:27:18;98191.13;;;9.15;100.00
40315;BME280;26021;45.640;11.302;2023-03-25T04:29:47;98179.72;;;9.21;100.00
40315;BME280;26021;45.640;11.302;2023-03-25T04:32:13;98181.63;;;9.42;100.00
40315;BME280;26021;45.640;11.302;2023-03-25T04:34:40;98184.84;;;9.67;100.00
40315;BME280;26021;45.640;11.302;2023-03-25T04:37:05;98145.94;;;9.29;100.00
40315;BME280;26021;45.640;11.302;2023-03-25T04:39:30;98195.72;;;9.21;100.00
40315;BME280;26021;45.640;11.302;2023-03-25T04:41:57;98187.97;;;9.12;100.00
40315;BME280;26021;45.640;11.302;2023-03-25T04:44:30;98191.19;;;9.37;100.00
40315;BME280;26021;45.640;11.302;2023-03-25T04:47:04;98186.25;;;9.19;100.00
40315;BME280;26021;45.640;11.302;2023-03-25T04:49:30;98189.28;;;9.16;100.00
40315;BME280;26021;45.640;11.302;2023-03-25T04:51:55;98135.97;;;8.78;100.00
40315;BME280;26021;45.640;11.302;2023-03-25T04:54:22;98185.88;;;9.07;100.00
40315;BME280;26021;45.640;11.302;2023-03-25T04:56:48;98192.22;;;9.06;100.00
40315;BME280;26021;45.640;11.302;2023-03-25T04:59:16;98180.69;;;8.91;100.00
40315;BME280;26021;45.640;11.302;2023-03-25T05:01:43;98195.19;;;8.74;100.00
40315;BME280;26021;45.640;11.302;2023-03-25T05:04:11;98158.41;;;8.84;100.00
40315;BME280;26021;45.640;11.302;2023-03-25T05:06:40;98190.38;;;9.07;100.00
40315;BME280;26021;45.640;11.302;2023-03-25T05:09:09;98187.84;;;8.90;100.00
40315;BME280;26021;45.640;11.302;2023-03-25T05:11:36;98189.34;;;8.93;100.00
40315;BME280;26021;45.640;11.302;2023-03-25T05:14:14;98186.84;;;8.91;100.00
40315;BME280;26021;45.640;11.302;2023-03-25T05:16:39;98188.63;;;9.14;100.00
40315;BME280;26021;45.640;11.302;2023-03-25T05:19:05;98175.66;;;9.11;100.00
40315;BME280;26021;45.640;11.302;2023-03-25T05:21:36;98197.91;;;9.18;100.00
40315;BME280;26021;45.640;11.302;2023-03-25T05:24:03;98185.50;;;8.96;100.00
40315;BME280;26021;45.640;11.302;2023-03-25T05:26:29;98201.69;;;8.94;100.00
40315;BME280;26021;45.640;11.302;2023-03-25T05:29:10;98194.41;;;9.03;100.00
40315;BME280;26021;45.640;11.302;2023-03-25T05:31:41;98115.00;;;8.60;100.00
40315;BME280;26021;45.640;11.302;2023-03-25T05:34:08;98174.50;;;8.90;100.00
40315;BME280;26021;45.640;11.302;2023-03-25T05:36:34;98199.66;;;8.96;100.00
40315;BME280;26021;45.640;11.302;2023-03-25T05:39:00;98182.00;;;8.95;100.00
40315;BME280;26021;45.640;11.302;2023-03-25T05:41:27;98199.84;;;9.24;100.00
40315;BME280;26021;45.640;11.302;2023-03-25T05:44:07;98200.81;;;8.79;100.00
40315;BME280;26021;45.640;11.302;2023-03-25T05:46:32;98195.03;;;8.90;100.00
40315;BME280;26021;45.640;11.302;2023-03-25T05:48:59;98202.38;;;8.88;100.00
40315;BME280;26021;45.640;11.302;2023-03-25T05:51:29;98206.19;;;8.94;100.00
40315;BME280;26021;45.640;11.302;2023-03-25T05:53:58;98186.03;;;8.53;100.00
40315;BME280;26021;45.640;11.302;2023-03-25T05:56:23;98210.78;;;9.00;100.00
40315;BME280;26021;45.640;11.302;2023-03-25T05:58:51;98131.16;;;8.21;100.00
40315;BME280;26021;45.640;11.302;2023-03-25T06:01:18;98209.41;;;8.66;100.00
40315;BME280;26021;45.640;11.302;2023-03-25T06:03:44;98206.41;;;8.84;100.00
40315;BME280;26021;45.640;11.302;2023-03-25T06:06:14;98210.97;;;8.98;100.00
40315;BME280;26021;45.640;11.302;2023-03-25T06:08:47;98157.69;;;8.90;100.00
40315;BME280;26021;45.640;11.302;2023-03-25T06:11:16;98184.59;;;9.18;100.00
40315;BME280;26021;45.640;11.302;2023-03-25T06:13:42;98177.59;;;9.17;100.00
40315;BME280;26021;45.640;11.302;2023-03-25T06:16:15;98184.84;;;9.38;100.00
40315;BME280;26021;45.640;11.302;2023-03-25T06:18:43;98202.50;;;9.68;100.00
40315;BME280;26021;45.640;11.302;2023-03-25T06:21:09;98208.00;;;9.81;100.00
40315;BME280;26021;45.640;11.302;2023-03-25T06:23:35;98201.28;;;10.22;100.00
40315;BME280;26021;45.640;11.302;2023-03-25T06:26:03;98200.16;;;9.95;100.00
40315;BME280;26021;45.640;11.302;2023-03-25T06:28:29;98219.63;;;10.10;100.00
40315;BME280;26021;45.640;11.302;2023-03-25T06:30:57;98225.09;;;10.02;100.00
40315;BME280;26021;45.640;11.302;2023-03-25T06:33:23;98218.03;;;10.15;100.00
40315;BME280;26021;45.640;11.302;2023-03-25T06:35:48;98222.31;;;10.46;100.00
40315;BME280;26021;45.640;11.302;2023-03-25T06:38:19;98200.78;;;10.75;100.00
40315;BME280;26021;45.640;11.302;2023-03-25T06:40:46;98224.97;;;10.67;100.00
40315;BME280;26021;45.640;11.302;2023-03-25T06:43:12;98224.84;;;10.75;100.00
40315;BME280;26021;45.640;11.302;2023-03-25T06:45:39;98222.50;;;10.94;100.00
40315;BME280;26021;45.640;11.302;2023-03-25T06:48:04;98223.13;;;11.17;100.00
40315;BME280;26021;45.640;11.302;2023-03-25T06:50:31;98227.53;;;11.31;100.00
40315;BME280;26021;45.640;11.302;2023-03-25T06:52:57;98226.66;;;11.24;100.00
40315;BME280;26021;45.640;11.302;2023-03-25T06:55:22;98220.72;;;11.29;100.00
40315;BME280;26021;45.640;11.302;2023-03-25T06:57:47;98206.75;;;11.33;100.00
40315;BME280;26021;45.640;11.302;2023-03-25T07:00:13;98215.78;;;11.67;100.00
40315;BME280;26021;45.640;11.302;2023-03-25T07:02:39;98150.81;;;11.52;100.00
40315;BME280;26021;45.640;11.302;2023-03-25T07:05:05;98212.25;;;11.94;100.00
40315;BME280;26021;45.640;11.302;2023-03-25T07:07:31;98220.53;;;12.06;100.00
40315;BME280;26021;45.640;11.302;2023-03-25T07:09:56;98140.16;;;11.71;100.00
40315;BME280;26021;45.640;11.302;2023-03-25T07:12:22;98219.69;;;11.64;100.00
40315;BME280;26021;45.640;11.302;2023-03-25T07:14:51;98215.31;;;11.91;100.00
40315;BME280;26021;45.640;11.302;2023-03-25T07:17:17;98224.44;;;12.03;100.00
40315;BME280;26021;45.640;11.302;2023-03-25T07:19:42;98184.47;;;11.67;100.00
40315;BME280;26021;45.640;11.302;2023-03-25T07:22:08;98153.03;;;11.41;100.00
40315;BME280;26021;45.640;11.302;2023-03-25T07:24:33;98218.03;;;12.04;100.00
40315;BME280;26021;45.640;11.302;2023-03-25T07:26:59;98216.56;;;11.95;100.00
40315;BME280;26021;45.640;11.302;2023-03-25T07:29:24;98208.44;;;12.56;100.00
40315;BME280;26021;45.640;11.302;2023-03-25T07:31:50;98207.44;;;12.84;100.00
40315;BME280;26021;45.640;11.302;2023-03-25T07:34:15;98198.13;;;12.47;100.00
40315;BME280;26021;45.640;11.302;2023-03-25T07:36:40;98224.69;;;12.28;100.00
40315;BME280;26021;45.640;11.302;2023-03-25T07:39:06;98209.69;;;12.47;100.00
40315;BME280;26021;45.640;11.302;2023-03-25T07:41:32;98152.69;;;12.12;100.00
40315;BME280;26021;45.640;11.302;2023-03-25T07:43:57;98209.31;;;12.70;100.00
40315;BME280;26021;45.640;11.302;2023-03-25T07:46:23;98216.53;;;12.83;100.00
40315;BME280;26021;45.640;11.302;2023-03-25T07:48:48;98182.66;;;13.21;100.00
40315;BME280;26021;45.640;11.302;2023-03-25T07:51:13;98201.81;;;13.58;100.00
40315;BME280;26021;45.640;11.302;2023-03-25T07:53:39;98202.09;;;13.88;100.00
40315;BME280;26021;45.640;11.302;2023-03-25T07:56:09;98154.31;;;13.90;100.00
40315;BME280;26021;45.640;11.302;2023-03-25T07:58:35;98114.91;;;13.77;100.00
40315;BME280;26021;45.640;11.302;2023-03-25T08:01:00;98187.94;;;14.12;100.00
40315;BME280;26021;45.640;11.302;2023-03-25T08:03:26;98190.38;;;14.20;100.00
40315;BME280;26021;45.640;11.302;2023-03-25T08:05:52;98197.91;;;13.98;100.00
40315;BME280;26021;45.640;11.302;2023-03-25T08:08:18;98208.63;;;14.05;100.00
40315;BME280;26021;45.640;11.302;2023-03-25T08:10:44;98206.41;;;13.95;100.00
40315;BME280;26021;45.640;11.302;2023-03-25T08:13:11;98214.34;;;13.77;100.00
40315;BME280;26021;45.640;11.302;2023-03-25T08:15:37;98188.63;;;13.30;100.00
40315;BME280;26021;45.640;11.302;2023-03-25T08:18:03;98180.22;;;13.78;100.00
40315;BME280;26021;45.640;11.302;2023-03-25T08:20:30;98207.38;;;14.52;100.00
40315;BME280;26021;45.640;11.302;2023-03-25T08:22:55;98211.28;;;14.56;100.00
40315;BME280;26021;45.640;11.302;2023-03-25T08:25:22;98216.22;;;14.91;100.00
40315;BME280;26021;45.640;11.302;2023-03-25T08:27:47;98203.81;;;14.90;100.00
40315;BME280;26021;45.640;11.302;2023-03-25T08:30:13;98221.44;;;15.11;100.00
40315;BME280;26021;45.640;11.302;2023-03-25T08:32:40;98212.22;;;15.00;100.00
40315;BME280;26021;45.640;11.302;2023-03-25T08:35:06;98217.78;;;15.23;100.00
40315;BME280;26021;45.640;11.302;2023-03-25T08:37:32;98134.13;;;14.75;100.00
40315;BME280;26021;45.640;11.302;2023-03-25T08:40:00;98179.34;;;15.35;100.00
40315;BME280;26021;45.640;11.302;2023-03-25T08:42:26;98206.38;;;15.46;100.00
40315;BME280;26021;45.640;11.302;2023-03-25T08:44:51;98218.56;;;15.49;100.00
40315;BME280;26021;45.640;11.302;2023-03-25T08:47:17;98212.47;;;15.60;100.00
40315;BME280;26021;45.640;11.302;2023-03-25T08:49:42;98214.06;;;15.68;100.00
40315;BME280;26021;45.640;11.302;2023-03-25T08:52:08;98180.75;;;15.37;100.00
40315;BME280;26021;45.640;11.302;2023-03-25T08:54:34;98215.84;;;15.31;100.00
40315;BME280;26021;45.640;11.302;2023-03-25T08:57:00;98167.66;;;15.22;100.00
40315;BME280;26021;45.640;11.302;2023-03-25T08:59:26;98225.59;;;15.50;100.00
40315;BME280;26021;45.640;11.302;2023-03-25T09:01:52;98223.88;;;15.62;100.00
40315;BME280;26021;45.640;11.302;2023-03-25T09:04:18;98219.38;;;15.74;100.00
40315;BME280;26021;45.640;11.302;2023-03-25T09:06:43;98222.59;;;15.65;100.00
40315;BME280;26021;45.640;11.302;2023-03-25T09:09:08;98222.59;;;15.83;100.00
40315;BME280;26021;45.640;11.302;2023-03-25T09:11:36;98226.56;;;15.99;100.00
40315;BME280;26021;45.640;11.302;2023-03-25T09:14:02;98227.31;;;15.87;100.00
40315;BME280;26021;45.640;11.302;2023-03-25T09:16:30;98209.03;;;15.89;100.00
40315;BME280;26021;45.640;11.302;2023-03-25T09:18:55;98223.69;;;16.12;100.00
40315;BME280;26021;45.640;11.302;2023-03-25T09:21:21;98221.06;;;16.05;100.00
40315;BME280;26021;45.640;11.302;2023-03-25T09:23:46;98147.34;;;15.63;100.00
40315;BME280;26021;45.640;11.302;2023-03-25T09:26:11;98215.25;;;16.38;100.00
40315;BME280;26021;45.640;11.302;2023-03-25T09:28:37;98205.91;;;16.23;100.00
40315;BME280;26021;45.640;11.302;2023-03-25T09:31:02;98214.59;;;16.25;100.00
40315;BME280;26021;45.640;11.302;2023-03-25T09:33:28;98217.97;;;16.20;100.00
40315;BME280;26021;45.640;11.302;2023-03-25T09:35:53;98210.19;;;16.12;100.00
40315;BME280;26021;45.640;11.302;2023-03-25T09:38:19;98207.44;;;16.30;100.00
40315;BME280;26021;45.640;11.302;2023-03-25T09:40:45;98199.94;;;16.02;100.00
40315;BME280;26021;45.640;11.302;2023-03-25T09:46:03;98207.41;;;16.37;100.00
40315;BME280;26021;45.640;11.302;2023-03-25T09:48:37;98194.66;;;16.56;100.00
40315;BME280;26021;45.640;11.302;2023-03-25T09:51:25;98195.53;;;16.68;100.00
40315;BME280;26021;45.640;11.302;2023-03-25T09:53:56;98200.34;;;16.66;100.00
40315;BME280;26021;45.640;11.302;2023-03-25T09:56:25;98189.53;;;16.66;100.00
40315;BME280;26021;45.640;11.302;2023-03-25T09:59:00;98191.09;;;16.85;100.00
40315;BME280;26021;45.640;11.302;2023-03-25T10:18:08;98178.91;;;17.41;100.00
40315;BME280;26021;45.640;11.302;2023-03-25T10:20:46;98173.97;;;17.50;100.00
40315;BME280;26021;45.640;11.302;2023-03-25T10:25:56;98164.56;;;17.52;100.00
40315;BME280;26021;45.640;11.302;2023-03-25T10:28:31;98170.91;;;17.46;100.00
40315;BME280;26021;45.640;11.302;2023-03-25T10:30:58;98155.97;;;17.67;100.00
40315;BME280;26021;45.640;11.302;2023-03-25T10:33:34;98160.88;;;17.82;100.00
40315;BME280;26021;45.640;11.302;2023-03-25T10:36:02;98151.59;;;17.77;100.00
40315;BME280;26021;45.640;11.302;2023-03-25T10:38:29;98164.75;;;17.74;100.00
40315;BME280;26021;45.640;11.302;2023-03-25T10:41:32;98163.13;;;17.85;100.00
40315;BME280;26021;45.640;11.302;2023-03-25T10:43:50;98156.31;;;18.10;99.48
40315;BME280;26021;45.640;11.302;2023-03-25T10:46:39;98157.03;;;18.06;98.96
40315;BME280;26021;45.640;11.302;2023-03-25T10:49:23;98156.22;;;18.05;98.89
40315;BME280;26021;45.640;11.302;2023-03-25T10:51:50;98151.34;;;17.79;99.12
40315;BME280;26021;45.640;11.302;2023-03-25T10:54:24;98118.31;;;17.65;98.54
40315;BME280;26021;45.640;11.302;2023-03-25T10:56:54;98125.03;;;17.74;100.00
40315;BME280;26021;45.640;11.302;2023-03-25T11:02:20;98110.50;;;17.40;100.00
40315;BME280;26021;45.640;11.302;2023-03-25T11:04:48;98114.00;;;17.53;100.00
40315;BME280;26021;45.640;11.302;2023-03-25T11:07:36;98119.06;;;18.01;97.07
40315;BME280;26021;45.640;11.302;2023-03-25T11:12:39;98057.19;;;18.21;93.73
40315;BME280;26021;45.640;11.302;2023-03-25T11:15:18;98125.53;;;18.73;90.37
40315;BME280;26021;45.640;11.302;2023-03-25T11:17:46;98117.06;;;18.70;90.30
40315;BME280;26021;45.640;11.302;2023-03-25T11:20:19;98110.88;;;18.91;91.20
40315;BME280;26021;45.640;11.302;2023-03-25T11:22:48;98109.16;;;19.02;86.89
40315;BME280;26021;45.640;11.302;2023-03-25T11:25:27;98098.44;;;19.12;83.74
40315;BME280;26021;45.640;11.302;2023-03-25T11:28:17;98089.28;;;19.35;82.75
40315;BME280;26021;45.640;11.302;2023-03-25T11:31:10;98084.34;;;19.32;76.54
40315;BME280;26021;45.640;11.302;2023-03-25T11:33:36;98083.63;;;19.36;78.26
40315;BME280;26021;45.640;11.302;2023-03-25T11:36:11;98069.00;;;19.38;78.76
40315;BME280;26021;45.640;11.302;2023-03-25T11:38:37;98061.81;;;19.48;72.31
40315;BME280;26021;45.640;11.302;2023-03-25T11:41:02;98056.00;;;19.61;71.94
40315;BME280;26021;45.640;11.302;2023-03-25T11:43:38;98035.34;;;19.55;68.99
40315;BME280;26021;45.640;11.302;2023-03-25T11:46:13;98067.19;;;19.65;68.75
40315;BME280;26021;45.640;11.302;2023-03-25T11:48:40;98034.56;;;19.38;66.39
40315;BME280;26021;45.640;11.302;2023-03-25T11:51:14;98038.69;;;19.24;66.19
40315;BME280;26021;45.640;11.302;2023-03-25T11:53:44;98033.09;;;19.30;65.52
40315;BME280;26021;45.640;11.302;2023-03-25T11:56:14;98046.22;;;19.39;65.26
40315;BME280;26021;45.640;11.302;2023-03-25T11:58:41;98012.41;;;19.02;64.47
40315;BME280;26021;45.640;11.302;2023-03-25T12:01:23;98029.69;;;19.18;65.96
40315;BME280;26021;45.640;11.302;2023-03-25T12:03:50;98039.44;;;19.19;65.58
40315;BME280;26021;45.640;11.302;2023-03-25T12:06:20;98029.00;;;19.50;64.25
40315;BME280;26021;45.640;11.302;2023-03-25T12:08:52;98004.41;;;19.83;62.99
40315;BME280;26021;45.640;11.302;2023-03-25T12:11:29;98027.88;;;20.21;59.77
40315;BME280;26021;45.640;11.302;2023-03-25T12:16:58;98026.84;;;19.52;47.46
40315;BME280;26021;45.640;11.302;2023-03-25T12:33:13;98005.31;;;20.21;45.39
40315;BME280;26021;45.640;11.302;2023-03-25T12:38:44;98003.09;;;20.87;42.60
40315;BME280;26021;45.640;11.302;2023-03-25T12:41:30;98002.66;;;21.05;43.70
40315;BME280;26021;45.640;11.302;2023-03-25T12:44:07;98010.59;;;21.17;39.11
40315;BME280;26021;45.640;11.302;2023-03-25T13:05:58;98011.72;;;20.79;35.52
40315;BME280;26021;45.640;11.302;2023-03-25T13:14:18;98004.88;;;21.18;34.96
40315;BME280;26021;45.640;11.302;2023-03-25T13:16:46;98010.88;;;21.20;35.44
40315;BME280;26021;45.640;11.302;2023-03-25T13:19:27;97993.47;;;21.21;35.10
40315;BME280;26021;45.640;11.302;2023-03-25T13:21:58;97998.09;;;21.21;34.88
40315;BME280;26021;45.640;11.302;2023-03-25T13:24:50;97992.75;;;20.84;35.97
40315;BME280;26021;45.640;11.302;2023-03-25T13:27:17;97991.41;;;20.81;34.83
40315;BME280;26021;45.640;11.302;2023-03-25T13:29:48;97991.13;;;20.83;33.55
40315;BME280;26021;45.640;11.302;2023-03-25T13:32:22;97988.44;;;20.88;33.52
40315;BME280;26021;45.640;11.302;2023-03-25T13:34:56;97990.06;;;20.89;33.98
40315;BME280;26021;45.640;11.302;2023-03-25T13:37:44;98012.44;;;21.06;33.34
40315;BME280;26021;45.640;11.302;2023-03-25T13:43:28;97992.22;;;20.82;32.78
40315;BME280;26021;45.640;11.302;2023-03-25T13:46:06;98006.91;;;20.86;32.82
40315;BME280;26021;45.640;11.302;2023-03-25T13:51:13;97932.59;;;20.65;34.20
40315;BME280;26021;45.640;11.302;2023-03-25T13:53:44;98009.56;;;21.28;33.18
40315;BME280;26021;45.640;11.302;2023-03-25T14:07:04;98000.81;;;20.69;34.97
40315;BME280;26021;45.640;11.302;2023-03-25T14:12:25;97994.06;;;20.76;35.32
40315;BME280;26021;45.640;11.302;2023-03-25T14:15:05;97997.38;;;20.41;35.02
40315;BME280;26021;45.640;11.302;2023-03-25T14:17:34;97985.56;;;20.30;35.57
40315;BME280;26021;45.640;11.302;2023-03-25T14:20:03;97973.06;;;20.29;36.12
40315;BME280;26021;45.640;11.302;2023-03-25T14:22:35;97991.81;;;20.63;36.23
40315;BME280;26021;45.640;11.302;2023-03-25T14:25:04;97993.13;;;20.55;35.16
40315;BME280;26021;45.640;11.302;2023-03-25T14:27:32;98005.25;;;20.43;35.07
40315;BME280;26021;45.640;11.302;2023-03-25T14:30:03;98015.41;;;20.57;35.87
40315;BME280;26021;45.640;11.302;2023-03-25T14:32:40;98013.06;;;20.76;35.37
40315;BME280;26021;45.640;11.302;2023-03-25T14:37:56;98013.19;;;20.49;35.16
40315;BME280;26021;45.640;11.302;2023-03-25T14:56:48;97993.13;;;20.23;35.06
40315;BME280;26021;45.640;11.302;2023-03-25T14:59:17;97992.88;;;20.25;34.34
40315;BME280;26021;45.640;11.302;2023-03-25T15:01:45;97990.06;;;20.15;34.39
40315;BME280;26021;45.640;11.302;2023-03-25T15:06:43;97990.97;;;20.25;34.57
40315;BME280;26021;45.640;11.302;2023-03-25T15:09:13;97986.53;;;20.14;34.75
40315;BME280;26021;45.640;11.302;2023-03-25T15:11:42;97988.44;;;20.14;35.01
40315;BME280;26021;45.640;11.302;2023-03-25T15:14:14;97975.41;;;20.16;35.34
40315;BME280;26021;45.640;11.302;2023-03-25T15:19:20;97928.78;;;19.92;34.92
40315;BME280;26021;45.640;11.302;2023-03-25T15:24:24;97985.09;;;20.39;35.08
40315;BME280;26021;45.640;11.302;2023-03-25T15:26:53;97985.34;;;20.37;35.20
40315;BME280;26021;45.640;11.302;2023-03-25T15:40:22;97998.50;;;20.50;34.21
40315;BME280;26021;45.640;11.302;2023-03-25T15:54:41;97992.75;;;19.83;33.96
40315;BME280;26021;45.640;11.302;2023-03-25T15:57:25;97998.19;;;19.56;34.37